Time;durP1;ratioP1;P1;durP2;ratioP2;P2;SDS_P1;SDS_P2;PMS_P1;PMS_P2;Temp;Humidity;BMP_temperature;BMP_pressure;BME280_temperature;BME280_humidity;BME280_pressure;Samples;Min_cycle;Max_cycle;Signal;HPM_P1;HPM_P2
2022/09/08 00:00:39;;;;;;;6.63;6.00;;;18.40;99.90;;;;;;4975049;28;20763;-88
2022/09/08 00:03:08;;;;;;;8.53;6.50;;;18.40;99.90;;;;;;4982570;28;20195;-88
2022/09/08 00:05:44;;;;;;;7.07;6.37;;;18.40;99.90;;;;;;4980693;28;20477;-88
2022/09/08 00:08:35;;;;;;;6.00;5.47;;;18.40;99.90;;;;;;4980627;28;20728;-88
2022/09/08 00:11:05;;;;;;;6.40;5.83;;;18.40;99.90;;;;;;4976467;28;20436;-88
2022/09/08 00:13:42;;;;;;;7.10;6.40;;;18.40;99.90;;;;;;4996295;28;20442;-88
2022/09/08 00:16:11;;;;;;;6.43;5.93;;;18.40;99.90;;;;;;4978674;28;20444;-88
2022/09/08 00:18:39;;;;;;;7.30;6.13;;;18.40;99.90;;;;;;4976075;28;20530;-88
2022/09/08 00:21:05;;;;;;;6.57;5.97;;;18.40;99.90;;;;;;4975688;28;20961;-88
2022/09/08 00:23:30;;;;;;;6.43;5.83;;;18.40;99.90;;;;;;4976907;28;21981;-88
2022/09/08 00:25:56;;;;;;;6.30;5.80;;;18.40;99.90;;;;;;4975877;28;20479;-89
2022/09/08 00:28:21;;;;;;;6.83;5.63;;;18.30;99.90;;;;;;4973320;28;20193;-88
2022/09/08 00:30:47;;;;;;;6.33;5.73;;;18.30;99.90;;;;;;4979308;28;20690;-89
2022/09/08 00:33:12;;;;;;;4.90;4.40;;;18.40;99.90;;;;;;4978054;28;20582;-88
2022/09/08 00:35:42;;;;;;;6.00;5.40;;;18.60;99.90;;;;;;4983285;28;20804;-88
2022/09/08 00:38:07;;;;;;;4.90;4.47;;;18.70;99.90;;;;;;4978977;28;20191;-88
2022/09/08 00:40:45;;;;;;;5.30;4.80;;;18.70;99.90;;;;;;4976844;28;20760;-88
2022/09/08 00:43:28;;;;;;;4.40;4.10;;;18.70;99.90;;;;;;4972364;28;20182;-88
2022/09/08 00:45:54;;;;;;;4.83;4.00;;;18.60;99.90;;;;;;4982247;28;20558;-88
2022/09/08 00:48:21;;;;;;;4.30;3.93;;;18.70;99.90;;;;;;4978027;28;21058;-88
2022/09/08 00:50:47;;;;;;;4.80;4.40;;;18.70;99.90;;;;;;4978911;28;20716;-88
2022/09/08 00:53:16;;;;;;;5.23;4.33;;;18.70;99.90;;;;;;4973842;28;21272;-89
2022/09/08 00:55:42;;;;;;;5.10;4.70;;;18.70;99.90;;;;;;4972599;28;20762;-88
2022/09/08 00:58:08;;;;;;;5.37;4.07;;;18.60;99.90;;;;;;4974456;28;20468;-88
2022/09/08 01:00:40;;;;;;;4.63;4.20;;;18.70;99.90;;;;;;4976639;28;20555;-88
2022/09/08 01:03:12;;;;;;;4.97;4.57;;;18.70;99.90;;;;;;4976025;28;20215;-88
2022/09/08 01:05:55;;;;;;;5.60;5.10;;;18.70;99.90;;;;;;4982772;28;20483;-88
2022/09/08 01:14:50;;;;;;;6.40;4.40;;;18.60;99.90;;;;;;4995182;28;21209;-88
2022/09/08 01:17:25;;;;;;;5.10;4.70;;;18.60;99.90;;;;;;4980544;28;20436;-88
2022/09/08 01:19:52;;;;;;;5.53;5.03;;;18.60;99.90;;;;;;4981553;28;20953;-87
2022/09/08 01:22:27;;;;;;;5.20;4.70;;;18.60;99.90;;;;;;4992724;28;20437;-88
2022/09/08 01:25:02;;;;;;;6.23;5.73;;;18.60;99.90;;;;;;4978766;28;21000;-88
2022/09/08 01:27:42;;;;;;;5.00;4.63;;;18.60;99.90;;;;;;4980026;28;20462;-88
2022/09/08 01:30:10;;;;;;;5.60;5.20;;;18.60;99.90;;;;;;4976807;28;20990;-88
2022/09/08 01:32:40;;;;;;;5.10;4.70;;;18.60;99.90;;;;;;4975827;28;20444;-88
2022/09/08 01:35:06;;;;;;;7.27;5.13;;;18.60;99.90;;;;;;4976219;28;20210;-88
2022/09/08 01:37:32;;;;;;;5.80;5.20;;;18.60;99.90;;;;;;4973029;28;21142;-88
2022/09/08 01:40:02;;;;;;;5.37;4.20;;;18.70;99.90;;;;;;4970933;28;20861;-88
2022/09/08 01:42:27;;;;;;;5.90;4.00;;;18.70;99.90;;;;;;4973323;28;20544;-88
2022/09/08 01:44:53;;;;;;;4.03;3.73;;;18.60;99.90;;;;;;4975175;28;20448;-88
2022/09/08 01:47:18;;;;;;;3.37;3.17;;;18.60;99.90;;;;;;4994869;28;20217;-88
2022/09/08 01:49:44;;;;;;;3.80;3.50;;;18.60;99.90;;;;;;4979959;28;20182;-87
2022/09/08 01:52:25;;;;;;;3.53;3.23;;;18.60;99.90;;;;;;4973524;28;20188;-88
2022/09/08 01:54:51;;;;;;;3.93;3.50;;;18.50;99.90;;;;;;4994636;28;20177;-89
2022/09/08 01:57:18;;;;;;;4.20;3.70;;;18.50;99.90;;;;;;4979715;28;20451;-89
2022/09/08 01:59:49;;;;;;;4.87;4.37;;;18.50;99.90;;;;;;4995808;28;20216;-89
2022/09/08 02:02:15;;;;;;;5.93;4.30;;;18.50;99.90;;;;;;4974355;28;21256;-89
2022/09/08 02:04:40;;;;;;;4.50;4.20;;;18.50;99.90;;;;;;4974780;28;20918;-90
2022/09/08 02:07:17;;;;;;;5.00;4.60;;;18.40;99.90;;;;;;4982046;28;20227;-90
2022/09/08 02:09:44;;;;;;;4.87;4.47;;;18.40;99.90;;;;;;4988298;28;20185;-89
2022/09/08 02:12:10;;;;;;;4.80;4.40;;;18.30;99.90;;;;;;4982561;28;21869;-89
2022/09/08 02:14:38;;;;;;;4.93;3.70;;;18.30;99.90;;;;;;4978927;28;20441;-89
2022/09/08 02:17:04;;;;;;;4.30;3.90;;;18.30;99.90;;;;;;4980073;28;20251;-89
2022/09/08 02:19:46;;;;;;;4.50;4.00;;;18.30;99.90;;;;;;4977666;28;20459;-90
2022/09/08 02:22:11;;;;;;;4.60;3.20;;;18.20;99.90;;;;;;4978024;28;20284;-88
2022/09/08 02:24:40;;;;;;;3.93;3.20;;;18.10;99.90;;;;;;4973964;28;20528;-88
2022/09/08 02:27:18;;;;;;;4.00;2.67;;;18.10;99.90;;;;;;4993780;28;20307;-88
2022/09/08 02:29:55;;;;;;;3.27;2.90;;;18.10;99.90;;;;;;4974417;28;20448;-88
2022/09/08 02:32:26;;;;;;;3.30;3.00;;;18.00;99.90;;;;;;4975014;28;20424;-88
2022/09/08 02:34:54;;;;;;;3.00;2.60;;;18.00;99.90;;;;;;4971232;28;20448;-89
2022/09/08 02:37:20;;;;;;;3.47;3.00;;;18.00;99.90;;;;;;4974093;28;20439;-88
2022/09/08 02:39:51;;;;;;;3.70;3.00;;;17.90;99.90;;;;;;4978464;28;20185;-88
2022/09/08 02:42:17;;;;;;;3.30;3.00;;;17.90;99.90;;;;;;4978831;28;20439;-89
2022/09/08 02:44:43;;;;;;;2.30;2.20;;;17.80;99.90;;;;;;4975879;28;20184;-90
2022/09/08 02:47:08;;;;;;;3.17;2.97;;;17.80;99.90;;;;;;4974611;28;20769;-89
2022/09/08 02:49:34;;;;;;;2.30;2.10;;;17.80;99.90;;;;;;4978171;28;20262;-89
2022/09/08 02:52:00;;;;;;;2.40;2.20;;;17.80;99.90;;;;;;4987037;28;21470;-89
2022/09/08 02:54:25;;;;;;;2.10;2.00;;;17.70;99.90;;;;;;4981250;28;20182;-90
2022/09/08 02:56:51;;;;;;;2.50;2.23;;;17.70;99.90;;;;;;4976333;28;20188;-85
2022/09/08 02:59:17;;;;;;;1.90;1.80;;;17.70;99.90;;;;;;4974619;28;20220;-85
2022/09/08 03:01:46;;;;;;;3.73;2.33;;;17.60;99.90;;;;;;4975721;28;20189;-85
2022/09/08 03:04:13;;;;;;;3.57;2.20;;;17.60;99.90;;;;;;4976016;28;20184;-86
2022/09/08 03:06:38;;;;;;;4.00;1.87;;;17.60;99.90;;;;;;4986187;28;20479;-85
2022/09/08 03:09:05;;;;;;;1.80;1.70;;;17.60;99.90;;;;;;4976157;28;20467;-85
2022/09/08 03:11:31;;;;;;;1.70;1.60;;;17.60;99.90;;;;;;4976629;28;20188;-85
2022/09/08 03:13:57;;;;;;;2.60;1.80;;;17.50;99.90;;;;;;4975566;28;20829;-85
2022/09/08 03:16:23;;;;;;;1.87;1.77;;;17.50;99.90;;;;;;4977739;28;20185;-85
2022/09/08 03:18:48;;;;;;;2.77;2.00;;;17.50;99.90;;;;;;4972686;28;20448;-85
2022/09/08 03:21:17;;;;;;;2.10;2.00;;;17.40;99.90;;;;;;4970929;28;20797;-84
2022/09/08 03:23:43;;;;;;;2.70;1.83;;;17.40;99.90;;;;;;4976485;28;20184;-84
2022/09/08 03:26:20;;;;;;;2.20;2.00;;;17.40;99.90;;;;;;4986467;28;21074;-84
2022/09/08 03:28:46;;;;;;;2.10;1.90;;;17.30;99.90;;;;;;4976510;28;20386;-83
2022/09/08 03:31:15;;;;;;;2.03;1.93;;;17.30;99.90;;;;;;4989627;28;21473;-83
2022/09/08 03:33:43;;;;;;;2.00;1.90;;;17.30;99.90;;;;;;4975732;28;20537;-84
2022/09/08 03:36:10;;;;;;;1.90;1.80;;;17.30;99.90;;;;;;4976667;28;20448;-83
2022/09/08 03:38:39;;;;;;;2.10;1.60;;;17.30;99.90;;;;;;4992139;28;20444;-84
2022/09/08 03:41:12;;;;;;;1.90;1.80;;;17.30;99.90;;;;;;4974666;28;20448;-84
2022/09/08 03:43:44;;;;;;;2.70;1.97;;;17.20;99.90;;;;;;4978171;28;20471;-85
2022/09/08 03:46:10;;;;;;;2.33;2.13;;;17.30;99.90;;;;;;4974488;28;20479;-85
2022/09/08 03:48:35;;;;;;;2.63;1.87;;;17.20;99.90;;;;;;4975866;28;20435;-85
2022/09/08 03:51:17;;;;;;;3.10;1.77;;;17.30;99.90;;;;;;4975868;28;20186;-85
2022/09/08 03:53:44;;;;;;;2.10;1.90;;;17.20;99.90;;;;;;4978816;28;20964;-85
2022/09/08 03:56:10;;;;;;;2.20;1.80;;;17.20;99.90;;;;;;4972086;28;20439;-85
2022/09/08 03:58:37;;;;;;;2.30;2.20;;;17.20;99.90;;;;;;4976684;28;20551;-85
2022/09/08 04:01:11;;;;;;;4.77;2.60;;;17.10;99.90;;;;;;4974485;28;20471;-85
2022/09/08 04:03:37;;;;;;;3.77;2.17;;;17.20;99.90;;;;;;4973179;28;20472;-85
2022/09/08 04:06:03;;;;;;;2.43;2.23;;;17.10;99.90;;;;;;4974046;28;20476;-85
2022/09/08 04:08:29;;;;;;;2.00;1.80;;;17.10;99.90;;;;;;4981071;28;20454;-83
2022/09/08 04:10:55;;;;;;;3.07;2.10;;;17.20;99.90;;;;;;4972720;28;21014;-85
2022/09/08 04:13:21;;;;;;;2.33;2.00;;;17.20;99.90;;;;;;4980053;28;20432;-85
2022/09/08 04:15:46;;;;;;;2.40;2.03;;;17.20;99.90;;;;;;4977123;28;20252;-85
2022/09/08 04:18:12;;;;;;;2.17;1.97;;;17.20;99.90;;;;;;4988511;28;20207;-85
2022/09/08 04:20:38;;;;;;;1.80;1.70;;;17.10;99.90;;;;;;4972381;28;20181;-83
2022/09/08 04:23:05;;;;;;;1.93;1.83;;;17.10;99.90;;;;;;4971417;28;20633;-84
2022/09/08 04:25:33;;;;;;;3.50;1.80;;;17.00;99.90;;;;;;4972327;28;20475;-84
2022/09/08 04:27:59;;;;;;;1.97;1.50;;;17.00;99.90;;;;;;4975764;28;20433;-84
2022/09/08 04:30:24;;;;;;;1.67;1.40;;;17.00;99.90;;;;;;4973727;28;20534;-84
2022/09/08 04:32:53;;;;;;;1.87;1.40;;;17.00;99.90;;;;;;4976105;28;20180;-84
2022/09/08 04:35:19;;;;;;;2.23;1.33;;;17.00;99.90;;;;;;4974732;28;20452;-84
2022/09/08 04:37:44;;;;;;;2.20;1.50;;;17.00;99.90;;;;;;4975094;28;20525;-84
2022/09/08 04:40:10;;;;;;;3.10;1.10;;;17.00;99.90;;;;;;4971086;28;20196;-84
2022/09/08 04:42:36;;;;;;;3.60;1.30;;;17.00;99.90;;;;;;4969755;28;20275;-84
2022/09/08 04:45:02;;;;;;;1.37;1.27;;;16.90;99.90;;;;;;4975062;28;20189;-84
2022/09/08 04:47:28;;;;;;;1.33;1.23;;;17.00;99.90;;;;;;4982859;28;20487;-84
2022/09/08 04:49:53;;;;;;;1.90;1.00;;;16.90;99.90;;;;;;4994676;28;20448;-83
2022/09/08 04:52:24;;;;;;;1.30;1.20;;;16.80;99.90;;;;;;4977743;28;20227;-84
2022/09/08 04:54:50;;;;;;;1.37;1.27;;;16.90;99.90;;;;;;4976084;28;20181;-84
2022/09/08 04:57:15;;;;;;;1.40;1.30;;;16.90;99.90;;;;;;4974849;28;20457;-84
2022/09/08 04:59:41;;;;;;;1.20;1.10;;;16.90;99.90;;;;;;4977006;28;20184;-84
2022/09/08 05:02:07;;;;;;;1.53;1.40;;;16.80;99.90;;;;;;4976423;28;20180;-84
2022/09/08 05:04:33;;;;;;;1.10;1.10;;;16.70;99.90;;;;;;4975554;28;20193;-84
2022/09/08 05:06:58;;;;;;;1.20;1.20;;;16.80;99.90;;;;;;4975299;28;20256;-84
2022/09/08 05:09:24;;;;;;;1.43;1.20;;;16.80;99.90;;;;;;4976681;28;20280;-86
2022/09/08 05:11:50;;;;;;;1.63;1.10;;;16.80;99.90;;;;;;4972403;28;20263;-89
2022/09/08 05:14:15;;;;;;;1.10;1.00;;;16.80;99.90;;;;;;4977943;28;20617;-90
2022/09/08 05:16:41;;;;;;;1.33;1.23;;;16.80;99.90;;;;;;4986238;28;20272;-88
2022/09/08 05:19:11;;;;;;;1.43;0.97;;;16.80;99.90;;;;;;4979752;28;20254;-91
2022/09/08 05:21:38;;;;;;;0.90;0.90;;;16.80;99.90;;;;;;4975491;28;20188;-88
2022/09/08 05:24:04;;;;;;;1.53;1.00;;;16.70;99.90;;;;;;4993664;28;20431;-90
2022/09/08 05:26:30;;;;;;;1.70;0.93;;;16.70;99.90;;;;;;4989817;28;20548;-87
2022/09/08 05:28:56;;;;;;;1.73;1.63;;;16.70;99.90;;;;;;4974615;28;20624;-86
2022/09/08 05:31:25;;;;;;;1.00;1.00;;;16.70;99.90;;;;;;4973738;28;20635;-87
2022/09/08 05:33:52;;;;;;;31.37;28.53;;;16.70;99.90;;;;;;4991573;28;20429;-88
2022/09/08 05:36:21;;;;;;;1.60;1.50;;;16.70;99.90;;;;;;4976453;28;20571;-87
2022/09/08 05:38:47;;;;;;;2.40;1.00;;;16.70;99.90;;;;;;4995010;28;20538;-87
2022/09/08 05:41:14;;;;;;;1.47;0.90;;;16.70;99.90;;;;;;4974458;28;20432;-87
2022/09/08 05:43:40;;;;;;;1.57;0.87;;;16.70;99.90;;;;;;4981628;28;20433;-88
2022/09/08 05:46:06;;;;;;;0.63;0.60;;;16.60;99.90;;;;;;4979413;28;20472;-89
2022/09/08 05:48:32;;;;;;;1.27;1.17;;;16.60;99.90;;;;;;4985657;28;20554;-88
2022/09/08 05:50:58;;;;;;;1.93;1.00;;;16.60;99.90;;;;;;4981678;28;20481;-88
2022/09/08 05:53:24;;;;;;;1.80;1.07;;;16.60;99.90;;;;;;4989282;28;20954;-88
2022/09/08 05:56:02;;;;;;;1.20;1.20;;;16.60;99.90;;;;;;4978802;28;20585;-87
2022/09/08 05:58:28;;;;;;;1.00;1.00;;;16.60;99.90;;;;;;4986359;28;20466;-88
2022/09/08 06:01:10;;;;;;;1.23;1.10;;;16.60;99.90;;;;;;4982238;28;20483;-89
2022/09/08 06:03:36;;;;;;;1.93;1.40;;;16.60;99.90;;;;;;4978912;28;20432;-86
2022/09/08 06:06:07;;;;;;;1.83;1.30;;;16.50;99.90;;;;;;4978212;28;20495;-87
2022/09/08 06:08:33;;;;;;;1.30;1.20;;;16.60;99.90;;;;;;4981526;28;20957;-86
2022/09/08 06:10:59;;;;;;;1.37;1.27;;;16.60;99.90;;;;;;4982296;28;20824;-87
2022/09/08 06:13:25;;;;;;;1.50;1.33;;;16.60;99.90;;;;;;4980330;28;20448;-87
2022/09/08 06:15:51;;;;;;;1.20;1.20;;;16.60;99.90;;;;;;4979057;28;20324;-87
2022/09/08 06:18:18;;;;;;;1.07;1.07;;;16.60;99.90;;;;;;4979091;28;20552;-87
2022/09/08 06:20:44;;;;;;;1.17;1.10;;;16.60;99.90;;;;;;4978853;28;20193;-87
2022/09/08 06:23:12;;;;;;;1.07;0.90;;;16.60;99.90;;;;;;4983354;28;20527;-86
2022/09/08 06:25:43;;;;;;;1.73;1.30;;;16.60;99.90;;;;;;4982003;28;20978;-87
2022/09/08 06:28:39;;;;;;;1.80;1.20;;;16.60;99.90;;;;;;4988530;28;20825;-86
2022/09/08 06:31:08;;;;;;;1.90;1.13;;;16.50;99.90;;;;;;4976824;28;20493;-86
2022/09/08 06:33:40;;;;;;;4.13;1.30;;;16.50;99.90;;;;;;4980567;28;20949;-86
2022/09/08 06:36:17;;;;;;;1.60;1.50;;;16.50;99.90;;;;;;4998026;28;20801;-87
2022/09/08 06:38:51;;;;;;;1.47;1.30;;;16.50;99.90;;;;;;4981288;28;20443;-87
2022/09/08 06:41:24;;;;;;;1.70;1.20;;;16.50;99.90;;;;;;4975611;28;20980;-86
2022/09/08 06:44:05;;;;;;;2.30;1.53;;;16.50;99.90;;;;;;4976550;28;21028;-90
2022/09/08 06:46:39;;;;;;;1.00;1.00;;;16.50;99.90;;;;;;4996774;28;20468;-87
2022/09/08 06:49:04;;;;;;;1.83;1.73;;;16.50;99.90;;;;;;4985584;28;20452;-87
2022/09/08 06:51:45;;;;;;;3.40;1.20;;;16.60;99.90;;;;;;4979618;28;20467;-87
2022/09/08 06:54:35;;;;;;;1.40;1.30;;;16.60;99.90;;;;;;4978933;28;20196;-87
2022/09/08 06:57:16;;;;;;;3.57;1.10;;;16.60;99.90;;;;;;4980741;28;20437;-87
2022/09/08 07:00:02;;;;;;;1.50;1.27;;;16.60;99.90;;;;;;4981564;28;20956;-87
2022/09/08 07:02:43;;;;;;;1.50;1.40;;;16.60;99.90;;;;;;4976380;28;20480;-87
2022/09/08 07:05:37;;;;;;;1.47;1.37;;;16.60;99.90;;;;;;4993981;28;20964;-87
2022/09/08 07:08:26;;;;;;;1.10;1.00;;;16.70;99.90;;;;;;4979678;28;20543;-87
2022/09/08 07:11:17;;;;;;;3.87;1.20;;;16.70;99.90;;;;;;4980778;28;20954;-87
2022/09/08 07:14:10;;;;;;;3.07;1.00;;;16.70;99.90;;;;;;4982757;28;20578;-87
2022/09/08 07:16:46;;;;;;;1.47;1.20;;;16.70;99.90;;;;;;4980111;28;20518;-87
2022/09/08 07:19:23;;;;;;;2.07;1.00;;;16.70;99.90;;;;;;4990542;28;20467;-87
2022/09/08 07:22:17;;;;;;;1.77;1.10;;;16.80;99.90;;;;;;4981476;28;20451;-87
2022/09/08 07:24:52;;;;;;;1.10;1.00;;;16.90;99.90;;;;;;4977684;28;20440;-87
2022/09/08 07:27:18;;;;;;;1.43;0.90;;;16.90;99.90;;;;;;4973306;28;21295;-87
2022/09/08 07:29:48;;;;;;;1.63;0.90;;;16.90;99.90;;;;;;4977663;28;20453;-88
2022/09/08 07:32:19;;;;;;;1.27;1.10;;;16.90;99.90;;;;;;4989134;28;20494;-88
2022/09/08 07:35:15;;;;;;;1.00;0.90;;;17.00;99.90;;;;;;4976991;28;20546;-87
2022/09/08 07:37:45;;;;;;;1.70;0.90;;;17.10;99.90;;;;;;4979435;28;20452;-87
2022/09/08 07:40:37;;;;;;;1.13;0.90;;;17.00;99.90;;;;;;4978383;28;20442;-87
2022/09/08 07:43:09;;;;;;;1.47;1.20;;;17.00;99.90;;;;;;4971080;28;20444;-87
2022/09/08 07:45:45;;;;;;;1.30;0.87;;;17.00;99.90;;;;;;4975715;28;20515;-87
2022/09/08 07:48:24;;;;;;;1.53;0.87;;;17.00;99.90;;;;;;4990338;28;20479;-88
2022/09/08 07:51:00;;;;;;;0.90;0.90;;;17.20;99.90;;;;;;4984242;28;20459;-87
2022/09/08 07:53:32;;;;;;;3.10;1.00;;;17.50;99.90;;;;;;4990098;28;20455;-87
2022/09/08 07:56:06;;;;;;;1.33;0.70;;;17.70;99.90;;;;;;4980577;28;20440;-88
2022/09/08 07:58:56;;;;;;;1.13;1.03;;;17.90;99.90;;;;;;4992849;28;20439;-87
2022/09/08 08:01:50;;;;;;;1.20;0.93;;;17.80;99.90;;;;;;5002171;28;20440;-88
2022/09/08 08:04:50;;;;;;;1.23;0.70;;;17.40;99.90;;;;;;4997350;28;20558;-88
2022/09/08 08:07:23;;;;;;;1.50;0.70;;;17.40;99.90;;;;;;5001661;28;20490;-88
2022/09/08 08:10:01;;;;;;;1.17;0.80;;;17.40;99.90;;;;;;4980940;28;20534;-88
2022/09/08 08:13:00;;;;;;;2.00;1.10;;;17.60;99.90;;;;;;4980813;28;20452;-87
2022/09/08 08:15:34;;;;;;;1.33;1.20;;;17.90;99.90;;;;;;4997841;28;20614;-87
2022/09/08 08:18:27;;;;;;;1.30;0.73;;;18.10;99.90;;;;;;4983470;28;20456;-87
2022/09/08 08:21:02;;;;;;;0.70;0.70;;;18.10;99.90;;;;;;4981730;28;21192;-87
2022/09/08 08:23:45;;;;;;;3.97;0.90;;;18.30;99.90;;;;;;4981312;28;20451;-88
2022/09/08 08:26:32;;;;;;;1.97;1.20;;;18.50;99.90;;;;;;4979743;28;20467;-87
2022/09/08 08:29:13;;;;;;;1.20;0.80;;;18.80;99.90;;;;;;4999803;28;20445;-88
2022/09/08 08:31:48;;;;;;;1.13;0.80;;;18.90;99.90;;;;;;4984250;28;20510;-88
2022/09/08 08:34:13;;;;;;;0.97;0.83;;;19.00;99.90;;;;;;4984617;28;20501;-88
2022/09/08 08:36:43;;;;;;;1.57;1.00;;;18.90;99.90;;;;;;4983694;28;20798;-89
2022/09/08 08:39:22;;;;;;;1.00;0.90;;;19.20;99.90;;;;;;4984677;28;20621;-88
2022/09/08 08:41:56;;;;;;;3.97;1.13;;;19.50;99.90;;;;;;4980065;28;20825;-88
2022/09/08 08:44:43;;;;;;;1.67;1.07;;;19.50;99.90;;;;;;4995192;28;20802;-89
2022/09/08 08:47:25;;;;;;;2.00;1.10;;;19.40;99.90;;;;;;4995955;28;20641;-89
2022/09/08 08:50:07;;;;;;;2.10;1.47;;;19.50;99.90;;;;;;4998146;28;20917;-89
2022/09/08 08:53:03;;;;;;;2.40;1.20;;;19.40;99.90;;;;;;4982965;28;20433;-88
2022/09/08 08:56:07;;;;;;;1.00;0.90;;;19.30;99.90;;;;;;4996250;28;20469;-88
2022/09/08 08:59:20;;;;;;;0.93;0.80;;;19.20;99.90;;;;;;4980013;28;20459;-89
2022/09/08 09:02:31;;;;;;;1.10;1.00;;;19.10;99.90;;;;;;4971900;28;20632;-88
2022/09/08 09:05:46;;;;;;;0.90;0.90;;;19.00;99.90;;;;;;4979297;28;20994;-90
2022/09/08 09:08:45;;;;;;;1.53;1.43;;;19.00;99.90;;;;;;4978931;28;20449;-89
2022/09/08 09:11:41;;;;;;;2.73;1.20;;;19.00;99.90;;;;;;4979733;28;20445;-89
2022/09/08 09:14:42;;;;;;;1.17;1.07;;;18.70;99.90;;;;;;4981957;28;20442;-89
2022/09/08 09:17:35;;;;;;;2.50;1.20;;;18.60;99.90;;;;;;5000904;28;20442;-89
2022/09/08 09:20:37;;;;;;;1.73;1.30;;;18.60;99.90;;;;;;5000226;28;20951;-88
2022/09/08 09:23:27;;;;;;;1.20;1.10;;;18.80;99.90;;;;;;4979560;28;20431;-90
2022/09/08 09:26:50;;;;;;;1.30;0.80;;;18.70;99.90;;;;;;4975881;28;20456;-90
2022/09/08 09:29:41;;;;;;;1.10;1.00;;;18.60;99.90;;;;;;4971453;28;20475;-89
2022/09/08 09:32:37;;;;;;;1.30;1.20;;;18.90;99.90;;;;;;4969924;28;20736;-90
2022/09/08 09:35:39;;;;;;;1.20;1.10;;;19.00;99.90;;;;;;5001110;28;20448;-89
2022/09/08 09:38:43;;;;;;;3.70;1.23;;;19.20;99.90;;;;;;4985422;28;20960;-89
2022/09/08 09:41:35;;;;;;;0.97;0.93;;;19.40;99.90;;;;;;4950566;28;20826;-91
2022/09/08 09:44:23;;;;;;;1.70;1.50;;;19.20;99.90;;;;;;5000843;28;20468;-90
2022/09/08 09:46:55;;;;;;;1.60;1.27;;;19.20;99.90;;;;;;4984897;28;20471;-89
2022/09/08 09:49:54;;;;;;;1.90;1.80;;;19.50;99.90;;;;;;4996485;28;20436;-90
2022/09/08 09:52:56;;;;;;;1.10;1.10;;;19.40;99.90;;;;;;4997148;28;20868;-91
2022/09/08 09:55:40;;;;;;;2.23;1.33;;;19.60;99.90;;;;;;5001980;28;20474;-88
2022/09/08 09:58:44;;;;;;;1.57;1.43;;;19.60;99.90;;;;;;4994534;28;20480;-90
2022/09/08 10:01:37;;;;;;;1.50;1.40;;;19.90;99.90;;;;;;4996525;28;20444;-89
2022/09/08 10:04:20;;;;;;;1.13;1.03;;;19.90;99.90;;;;;;4998396;28;21008;-90
2022/09/08 10:07:10;;;;;;;1.53;1.20;;;20.20;99.90;;;;;;4990114;28;20484;-90
2022/09/08 10:09:54;;;;;;;1.63;1.13;;;20.30;99.90;;;;;;4982912;28;20432;-90
2022/09/08 10:12:47;;;;;;;2.23;1.60;;;20.20;99.90;;;;;;4992940;28;20478;-87
2022/09/08 10:15:46;;;;;;;1.23;1.13;;;20.60;99.90;;;;;;4994041;28;20516;-90
2022/09/08 10:18:41;;;;;;;1.10;1.10;;;20.90;99.90;;;;;;4999604;28;20460;-90
2022/09/08 10:21:07;;;;;;;1.83;1.73;;;21.40;99.90;;;;;;4993639;28;20467;-89
2022/09/08 10:23:52;;;;;;;2.20;1.20;;;21.70;99.90;;;;;;4993574;28;20433;-90
2022/09/08 10:26:37;;;;;;;1.77;1.30;;;21.60;99.90;;;;;;4992770;28;20208;-90
2022/09/08 10:29:27;;;;;;;1.10;1.00;;;21.50;99.90;;;;;;4999462;28;20511;-90
2022/09/08 10:32:29;;;;;;;1.17;1.17;;;22.10;99.90;;;;;;4997520;28;20431;-89
2022/09/08 10:35:32;;;;;;;1.80;1.23;;;21.70;99.90;;;;;;5000597;28;20446;-89
2022/09/08 10:38:31;;;;;;;1.20;1.10;;;20.80;99.90;;;;;;4999332;28;20471;-89
2022/09/08 10:40:57;;;;;;;1.80;1.30;;;20.60;99.90;;;;;;4996399;28;20429;-89
2022/09/08 10:43:38;;;;;;;3.30;1.20;;;20.30;99.90;;;;;;4995243;28;20718;-90
2022/09/08 10:46:34;;;;;;;2.23;1.20;;;20.20;99.90;;;;;;4996560;28;20197;-90
2022/09/08 10:49:03;;;;;;;2.13;1.20;;;20.20;99.90;;;;;;4997098;28;20493;-90
2022/09/08 10:51:38;;;;;;;1.00;1.00;;;20.50;99.90;;;;;;4978556;28;20436;-90
2022/09/08 10:54:22;;;;;;;2.10;1.30;;;20.60;99.90;;;;;;5000536;28;20530;-90
2022/09/08 10:56:48;;;;;;;1.93;1.27;;;20.20;99.90;;;;;;4974596;28;20475;-90
2022/09/08 10:59:48;;;;;;;2.57;1.83;;;20.20;99.90;;;;;;4976870;28;20437;-89
2022/09/08 11:02:32;;;;;;;1.27;1.00;;;20.30;99.90;;;;;;4978221;28;20532;-89
2022/09/08 11:05:30;;;;;;;1.13;1.03;;;20.60;99.90;;;;;;4978359;28;20452;-88
2022/09/08 11:08:13;;;;;;;1.63;1.20;;;20.30;99.90;;;;;;4997312;28;20447;-89
2022/09/08 11:11:17;;;;;;;1.70;1.30;;;20.20;99.90;;;;;;4979764;28;20503;-88
2022/09/08 11:14:05;;;;;;;2.13;1.20;;;19.80;99.90;;;;;;4976472;28;20450;-89
2022/09/08 11:16:49;;;;;;;1.73;1.17;;;19.40;99.90;;;;;;4980390;28;20497;-90
2022/09/08 11:19:39;;;;;;;1.30;1.20;;;18.30;99.90;;;;;;4996192;28;20482;-89
2022/09/08 11:22:35;;;;;;;3.20;1.50;;;17.90;99.90;;;;;;4998461;28;20517;-89
2022/09/08 11:25:04;;;;;;;1.70;1.60;;;17.80;99.90;;;;;;4992894;28;20523;-88
2022/09/08 11:27:47;;;;;;;1.20;0.93;;;18.00;99.90;;;;;;4997188;28;20574;-88
2022/09/08 11:30:19;;;;;;;2.13;1.00;;;18.40;99.90;;;;;;4997859;28;20435;-90
2022/09/08 11:33:00;;;;;;;1.00;1.00;;;19.00;99.90;;;;;;4984252;28;20480;-89
2022/09/08 11:36:00;;;;;;;1.10;1.00;;;19.40;99.90;;;;;;4998756;28;20440;-89
2022/09/08 11:38:45;;;;;;;1.43;1.10;;;19.30;99.90;;;;;;5001291;28;20805;-89
2022/09/08 11:41:23;;;;;;;1.27;1.03;;;20.00;99.90;;;;;;4983416;28;20464;-89
2022/09/08 11:44:28;;;;;;;3.20;1.00;;;20.60;99.90;;;;;;4983670;28;20486;-88
2022/09/08 11:47:26;;;;;;;1.60;1.17;;;21.10;99.90;;;;;;4945801;28;20843;-88
2022/09/08 11:50:05;;;;;;;1.43;0.93;;;21.00;99.90;;;;;;4979837;28;21762;-89
2022/09/08 11:52:57;;;;;;;1.83;1.00;;;21.00;99.90;;;;;;4982840;28;20443;-89
2022/09/08 11:55:34;;;;;;;0.83;0.83;;;21.10;99.90;;;;;;4984039;28;20440;-90
2022/09/08 11:58:15;;;;;;;0.80;0.80;;;21.30;99.90;;;;;;4994153;28;20448;-90
2022/09/08 12:01:02;;;;;;;0.67;0.67;;;21.80;99.90;;;;;;4997062;28;20472;-89
2022/09/08 12:03:42;;;;;;;1.00;1.00;;;21.90;99.90;;;;;;4982388;28;20549;-88
2022/09/08 12:06:26;;;;;;;1.20;1.10;;;22.40;99.90;;;;;;4995030;28;20462;-88
2022/09/08 12:09:07;;;;;;;1.80;1.10;;;22.50;99.90;;;;;;4994913;28;20441;-88
2022/09/08 12:12:11;;;;;;;1.20;0.80;;;22.60;99.80;;;;;;5000983;28;20969;-89
2022/09/08 12:15:03;;;;;;;0.90;0.90;;;22.30;98.70;;;;;;5003472;28;20440;-89
2022/09/08 12:17:52;;;;;;;0.93;0.83;;;22.70;97.50;;;;;;5000278;28;20484;-90
2022/09/08 12:20:22;;;;;;;1.00;0.90;;;23.00;98.00;;;;;;4999269;28;20439;-88
2022/09/08 12:23:09;;;;;;;1.57;1.13;;;23.10;96.80;;;;;;4978688;28;20448;-89
2022/09/08 12:25:57;;;;;;;0.90;0.80;;;23.40;97.10;;;;;;4999989;28;20440;-89
2022/09/08 12:28:53;;;;;;;1.93;1.10;;;23.40;97.20;;;;;;4999786;28;20503;-90
2022/09/08 12:31:44;;;;;;;1.30;1.20;;;22.40;98.20;;;;;;5003636;28;20424;-89
2022/09/08 12:34:16;;;;;;;1.97;1.07;;;22.20;98.20;;;;;;4984325;28;20527;-90
2022/09/08 12:36:46;;;;;;;1.10;0.80;;;22.80;99.10;;;;;;4996809;28;20450;-89
2022/09/08 12:39:49;;;;;;;1.23;0.90;;;23.30;96.50;;;;;;4979424;28;20440;-90
2022/09/08 12:42:30;;;;;;;0.93;0.93;;;22.90;96.20;;;;;;4992781;28;20740;-90
2022/09/08 12:45:18;;;;;;;0.83;0.70;;;22.70;96.80;;;;;;4993652;28;20491;-91
2022/09/08 12:48:06;;;;;;;0.70;0.70;;;22.80;96.00;;;;;;4974131;28;20479;-90
2022/09/08 12:51:23;;;;;;;1.33;0.80;;;23.00;96.80;;;;;;4995909;28;20520;-90
2022/09/08 12:54:21;;;;;;;0.90;0.90;;;22.70;95.90;;;;;;4961776;28;20495;-91
2022/09/08 12:57:11;;;;;;;2.67;0.80;;;22.70;96.20;;;;;;4977330;28;20946;-90
2022/09/08 13:00:01;;;;;;;1.37;0.80;;;22.50;96.50;;;;;;4994928;28;20436;-90
2022/09/08 13:02:48;;;;;;;1.00;0.90;;;22.20;96.20;;;;;;4978504;28;21640;-90
2022/09/08 13:05:42;;;;;;;1.63;1.10;;;22.00;96.00;;;;;;4999461;28;20507;-90
2022/09/08 13:08:17;;;;;;;1.83;0.63;;;22.00;96.20;;;;;;5000370;28;20446;-90
2022/09/08 13:10:46;;;;;;;0.70;0.70;;;22.50;95.80;;;;;;4981293;28;20433;-91
2022/09/08 13:13:31;;;;;;;5.23;0.93;;;22.50;95.30;;;;;;4980280;28;20456;-91
2022/09/08 13:16:09;;;;;;;0.90;0.90;;;22.80;95.50;;;;;;4984778;28;20434;-90
2022/09/08 13:18:59;;;;;;;2.63;0.90;;;23.10;95.80;;;;;;4997489;28;20482;-90
2022/09/08 13:21:53;;;;;;;1.20;0.60;;;23.10;94.30;;;;;;5001793;28;20440;-90
2022/09/08 13:24:37;;;;;;;0.90;0.90;;;22.90;95.20;;;;;;4978388;28;20469;-90
2022/09/08 13:27:20;;;;;;;0.87;0.83;;;23.10;95.00;;;;;;4996191;28;20499;-89
2022/09/08 13:30:01;;;;;;;0.73;0.70;;;22.90;94.50;;;;;;4989684;28;21000;-90
2022/09/08 13:32:49;;;;;;;1.07;0.90;;;22.90;94.90;;;;;;4997273;28;20478;-90
2022/09/08 13:35:45;;;;;;;0.80;0.80;;;23.40;94.60;;;;;;4996812;28;20655;-90
2022/09/08 13:38:49;;;;;;;1.13;0.70;;;23.10;94.20;;;;;;4995263;28;20535;-90
2022/09/08 13:41:46;;;;;;;1.53;0.90;;;23.50;94.30;;;;;;4992745;28;20539;-90
2022/09/08 13:44:33;;;;;;;0.70;0.70;;;23.50;93.80;;;;;;4978931;28;20557;-90
2022/09/08 13:47:17;;;;;;;1.37;0.73;;;23.20;94.70;;;;;;5001104;28;20477;-90